createdAt,value
2018-05-25T00:01:59.665Z,3.30
2018-05-25T00:04:27.172Z,3.23
2018-05-25T00:06:54.655Z,3.50
2018-05-25T00:09:22.213Z,3.27
2018-05-25T00:11:49.677Z,2.90
2018-05-25T00:14:17.177Z,3.20
2018-05-25T00:16:45.434Z,3.27
2018-05-25T00:19:13.697Z,3.30
2018-05-25T00:21:41.164Z,4.07
2018-05-25T00:24:08.677Z,3.33
2018-05-25T00:26:36.169Z,3.73
2018-05-25T00:29:03.664Z,4.83
2018-05-25T00:31:31.910Z,4.07
2018-05-25T00:33:59.416Z,3.70
2018-05-25T00:36:26.889Z,4.00
2018-05-25T00:38:54.382Z,4.40
2018-05-25T00:41:21.869Z,3.83
2018-05-25T00:43:50.144Z,5.20
2018-05-25T00:46:17.641Z,4.23
2018-05-25T00:48:45.146Z,3.47
2018-05-25T00:51:12.656Z,3.50
2018-05-25T00:53:40.137Z,3.40
2018-05-25T00:56:07.638Z,4.40
2018-05-25T00:58:35.872Z,4.60
2018-05-25T01:01:03.387Z,4.60
2018-05-25T01:03:31.615Z,3.50
2018-05-25T01:05:59.116Z,3.90
2018-05-25T01:08:27.334Z,3.60
2018-05-25T01:10:54.855Z,3.47
2018-05-25T01:13:23.084Z,3.60
2018-05-25T01:15:50.582Z,4.17
2018-05-25T01:18:18.837Z,3.97
2018-05-25T01:20:46.329Z,3.20
2018-05-25T01:23:13.805Z,3.47
2018-05-25T01:25:41.303Z,4.73
2018-05-25T01:28:08.781Z,3.70
2018-05-25T01:30:36.295Z,3.60
2018-05-25T01:33:03.768Z,3.73
2018-05-25T01:35:31.284Z,3.20
2018-05-25T01:37:59.526Z,3.73
2018-05-25T01:40:27.068Z,3.90
2018-05-25T01:42:54.541Z,3.57
2018-05-25T01:45:22.012Z,4.10
2018-05-25T01:47:49.501Z,3.67
2018-05-25T01:50:16.973Z,4.50
2018-05-25T01:52:44.473Z,4.70
2018-05-25T01:55:11.965Z,4.47
2018-05-25T01:57:40.235Z,5.00
2018-05-25T02:00:08.486Z,5.00
2018-05-25T02:02:35.993Z,4.47
2018-05-25T02:05:03.492Z,5.43
2018-05-25T02:07:30.993Z,5.77
2018-05-25T02:09:59.214Z,5.90
2018-05-25T02:12:26.713Z,6.10
2018-05-25T02:14:54.172Z,5.90
2018-05-25T02:17:22.432Z,5.60
2018-05-25T02:19:49.915Z,5.00
2018-05-25T02:22:18.185Z,5.77
2018-05-25T02:24:45.633Z,5.00
2018-05-25T02:27:13.093Z,4.67
2018-05-25T02:29:40.595Z,4.47
2018-05-25T02:32:08.069Z,4.90
2018-05-25T02:34:35.583Z,5.33
2018-05-25T02:37:03.061Z,7.27
2018-05-25T02:39:30.578Z,4.43
2018-05-25T02:41:58.047Z,4.93
2018-05-25T02:44:25.558Z,5.03
2018-05-25T02:46:53.021Z,4.23
2018-05-25T02:49:20.486Z,5.30
2018-05-25T02:51:47.993Z,4.43
2018-05-25T02:54:16.226Z,4.17
2018-05-25T02:56:43.707Z,4.23
2018-05-25T02:59:11.196Z,4.67
2018-05-25T03:01:39.454Z,4.40
2018-05-25T03:04:06.933Z,4.40
2018-05-25T03:06:35.205Z,3.37
2018-05-25T03:09:03.437Z,4.77
2018-05-25T03:11:30.944Z,4.00
2018-05-25T03:13:59.179Z,4.60
2018-05-25T03:16:26.707Z,4.17
2018-05-25T03:18:54.171Z,4.57
2018-05-25T03:21:21.664Z,4.23
2018-05-25T03:23:49.142Z,3.93
2018-05-25T03:26:16.622Z,4.10
2018-05-25T03:28:44.114Z,3.13
2018-05-25T03:31:11.570Z,3.43
2018-05-25T03:33:39.064Z,4.00
2018-05-25T03:36:06.578Z,3.93
2018-05-25T03:38:34.086Z,3.87
2018-05-25T03:41:01.541Z,4.20
2018-05-25T03:43:29.024Z,4.03
2018-05-25T03:45:56.538Z,4.78
2018-05-25T03:48:24.013Z,3.93
2018-05-25T03:50:51.526Z,4.10
2018-05-25T03:53:19.055Z,4.07
2018-05-25T03:55:47.304Z,3.87
2018-05-25T03:58:14.808Z,4.40
2018-05-25T04:00:54.360Z,5.17
2018-05-25T04:03:21.877Z,4.32
2018-05-25T04:05:49.380Z,4.50
2018-05-25T04:08:16.870Z,5.17
2018-05-25T04:10:44.365Z,5.13
2018-05-25T04:13:12.717Z,4.90
2018-05-25T04:15:40.214Z,4.77
2018-05-25T04:18:07.737Z,5.07
2018-05-25T04:20:35.202Z,4.37
2018-05-25T04:23:02.688Z,4.67
2018-05-25T04:25:30.174Z,4.07
2018-05-25T04:27:57.710Z,5.33
2018-05-25T04:30:25.236Z,4.60
2018-05-25T04:32:52.705Z,4.73
2018-05-25T04:35:20.959Z,4.50
2018-05-25T04:37:48.467Z,5.40
2018-05-25T04:40:15.945Z,4.40
2018-05-25T04:42:43.438Z,4.87
2018-05-25T04:45:10.913Z,4.80
2018-05-25T04:47:38.377Z,4.50
2018-05-25T04:50:05.865Z,5.40
2018-05-25T04:52:33.333Z,5.10
2018-05-25T04:55:00.829Z,4.73
2018-05-25T04:57:28.303Z,4.60
2018-05-25T04:59:55.796Z,5.30
2018-05-25T05:02:23.278Z,4.80
2018-05-25T05:04:50.803Z,4.10
2018-05-25T05:07:19.067Z,5.87
2018-05-25T05:09:47.308Z,4.53
2018-05-25T05:12:14.823Z,4.60
2018-05-25T05:14:42.340Z,4.80
2018-05-25T05:17:09.813Z,5.20
2018-05-25T05:19:38.056Z,5.30
2018-05-25T05:22:05.542Z,6.30
2018-05-25T05:24:33.001Z,4.67
2018-05-25T05:27:00.502Z,5.70
2018-05-25T05:29:27.979Z,5.60
2018-05-25T05:31:55.484Z,5.80
2018-05-25T05:34:23.747Z,6.00
2018-05-25T05:36:51.244Z,5.57
2018-05-25T05:39:18.722Z,4.80
2018-05-25T05:41:46.233Z,5.50
2018-05-25T05:44:13.699Z,6.60
2018-05-25T05:46:41.973Z,6.00
2018-05-25T05:49:09.449Z,6.00
2018-05-25T05:51:36.956Z,5.93
2018-05-25T05:54:04.449Z,5.80
2018-05-25T05:56:31.952Z,5.30
2018-05-25T05:58:59.461Z,6.87
2018-05-25T06:01:26.929Z,6.47
2018-05-25T06:03:55.168Z,7.23
2018-05-25T06:06:22.667Z,7.07
2018-05-25T06:08:51.348Z,6.90
2018-05-25T06:11:18.845Z,7.03
2018-05-25T06:13:46.336Z,7.50
2018-05-25T06:16:13.860Z,8.13
2018-05-25T06:18:41.336Z,7.10
2018-05-25T06:21:08.837Z,7.40
2018-05-25T06:23:37.085Z,7.03
2018-05-25T06:26:04.594Z,7.77
2018-05-25T06:28:32.849Z,7.70
2018-05-25T06:31:00.376Z,8.70
2018-05-25T06:33:27.885Z,8.50
2018-05-25T06:35:56.141Z,9.23
2018-05-25T06:38:25.141Z,9.23
2018-05-25T06:40:53.421Z,8.40
2018-05-25T06:43:21.697Z,9.83
2018-05-25T06:45:49.672Z,8.83
2018-05-25T06:48:17.916Z,8.40
2018-05-25T06:50:45.465Z,8.50
2018-05-25T06:53:13.690Z,8.20
2018-05-25T06:55:41.945Z,8.00
2018-05-25T06:58:10.215Z,9.00
2018-05-25T07:00:37.687Z,8.73
2018-05-25T07:03:05.957Z,7.67
2018-05-25T07:05:33.463Z,7.07
2018-05-25T07:08:00.934Z,7.23
2018-05-25T07:10:28.422Z,8.00
2018-05-25T07:12:55.900Z,6.80
2018-05-25T07:15:23.444Z,6.00
2018-05-25T07:17:50.929Z,6.30
2018-05-25T07:20:19.177Z,5.33
2018-05-25T07:22:46.706Z,6.20
2018-05-25T07:25:14.165Z,5.27
2018-05-25T07:27:41.685Z,4.67
2018-05-25T07:30:09.929Z,5.20
2018-05-25T07:32:37.438Z,5.40
2018-05-25T07:35:04.939Z,6.03
2018-05-25T07:37:32.449Z,5.70
2018-05-25T07:39:59.922Z,5.00
2018-05-25T07:42:27.390Z,4.77
2018-05-25T07:44:55.046Z,5.60
2018-05-25T07:47:22.545Z,5.50
2018-05-25T07:49:50.063Z,5.80
2018-05-25T07:52:17.596Z,4.90
2018-05-25T07:54:45.821Z,4.13
2018-05-25T07:57:13.333Z,4.63
2018-05-25T07:59:41.585Z,4.43
2018-05-25T08:02:09.087Z,5.37
2018-05-25T08:04:36.565Z,5.20
2018-05-25T08:07:04.065Z,4.70
2018-05-25T08:09:31.533Z,3.97
2018-05-25T08:11:59.843Z,3.50
2018-05-25T08:14:27.305Z,4.10
2018-05-25T08:16:54.805Z,3.90
2018-05-25T08:19:22.315Z,3.77
2018-05-25T08:21:49.851Z,3.70
2018-05-25T08:24:17.277Z,3.23
2018-05-25T08:26:44.781Z,3.83
2018-05-25T08:29:12.297Z,3.97
2018-05-25T08:31:39.780Z,4.00
2018-05-25T08:34:08.023Z,3.83
2018-05-25T08:36:35.534Z,3.90
2018-05-25T08:39:03.793Z,3.70
2018-05-25T08:41:32.051Z,3.63
2018-05-25T08:43:59.569Z,3.33
2018-05-25T08:46:27.035Z,3.30
2018-05-25T08:48:54.754Z,3.20
2018-05-25T08:51:22.810Z,2.73
2018-05-25T08:53:50.715Z,4.10
2018-05-25T08:56:18.208Z,3.63
2018-05-25T08:58:45.705Z,3.03
2018-05-25T09:01:13.990Z,3.47
2018-05-25T09:03:41.446Z,3.50
2018-05-25T09:06:09.704Z,3.30
2018-05-25T09:08:37.247Z,3.10
2018-05-25T09:11:04.718Z,3.43
2018-05-25T09:13:32.198Z,3.47
2018-05-25T09:16:00.450Z,3.80
2018-05-25T09:18:27.945Z,3.60
2018-05-25T09:20:56.259Z,3.37
2018-05-25T09:23:23.702Z,3.43
2018-05-25T09:25:51.189Z,3.17
2018-05-25T09:28:18.658Z,3.57
2018-05-25T09:30:46.228Z,4.17
2018-05-25T09:33:13.650Z,3.33
2018-05-25T09:35:41.145Z,3.73
2018-05-25T09:38:09.407Z,2.83
2018-05-25T09:40:36.892Z,3.67
2018-05-25T09:43:05.142Z,3.90
2018-05-25T09:45:32.620Z,3.57
2018-05-25T09:48:00.881Z,3.77
2018-05-25T09:50:30.009Z,3.63
2018-05-25T09:52:58.281Z,3.20
2018-05-25T09:55:26.545Z,3.53
2018-05-25T09:57:56.438Z,2.70
2018-05-25T10:00:25.879Z,3.37
2018-05-25T10:02:54.137Z,3.20
2018-05-25T10:05:23.142Z,2.83
2018-05-25T10:07:50.621Z,2.87
2018-05-25T10:10:18.136Z,2.60
2018-05-25T10:12:45.625Z,2.93
2018-05-25T10:15:13.885Z,2.90
2018-05-25T10:17:41.378Z,3.23
2018-05-25T10:20:08.881Z,3.20
2018-05-25T10:22:36.395Z,2.10
2018-05-25T10:25:03.861Z,2.50
2018-05-25T10:27:31.361Z,2.33
2018-05-25T10:29:58.875Z,2.37
2018-05-25T10:32:26.389Z,2.60
2018-05-25T10:34:53.856Z,3.00
2018-05-25T10:37:21.372Z,2.80
2018-05-25T10:39:48.851Z,2.60
2018-05-25T10:42:16.343Z,2.47
2018-05-25T10:44:44.645Z,2.70
2018-05-25T10:47:12.138Z,3.10
2018-05-25T10:49:39.626Z,2.30
2018-05-25T10:52:07.126Z,2.27
2018-05-25T10:54:34.617Z,2.27
2018-05-25T10:57:02.122Z,2.27
2018-05-25T10:59:30.365Z,2.37
2018-05-25T11:01:58.641Z,2.40
2018-05-25T11:04:26.164Z,1.90
2018-05-25T11:06:53.660Z,2.67
2018-05-25T11:09:21.170Z,2.50
2018-05-25T11:11:48.642Z,1.90
2018-05-25T11:14:16.148Z,2.00
2018-05-25T11:16:43.657Z,2.13
2018-05-25T11:19:11.137Z,2.53
2018-05-25T11:21:38.668Z,2.30
2018-05-25T11:24:06.164Z,2.53
2018-05-25T11:26:33.633Z,2.63
2018-05-25T11:29:01.116Z,2.50
2018-05-25T11:31:29.394Z,2.87
2018-05-25T11:33:57.640Z,2.73
2018-05-25T11:36:25.134Z,2.87
2018-05-25T11:38:53.408Z,3.20
2018-05-25T11:41:21.666Z,2.63
2018-05-25T11:43:50.674Z,2.83
2018-05-25T11:46:18.929Z,3.10
2018-05-25T11:48:46.424Z,3.40
2018-05-25T11:51:14.734Z,2.60
2018-05-25T11:53:42.214Z,3.27
2018-05-25T11:56:09.719Z,2.90
2018-05-25T11:58:37.998Z,3.00
2018-05-25T12:01:06.253Z,2.90
2018-05-25T12:03:34.522Z,2.90
2018-05-25T12:06:02.006Z,2.60
2018-05-25T12:08:30.281Z,2.63
2018-05-25T12:10:58.563Z,3.37
2018-05-25T12:13:26.815Z,3.23
2018-05-25T12:15:54.296Z,2.63
2018-05-25T12:18:22.533Z,2.73
2018-05-25T12:20:50.033Z,2.77
2018-05-25T12:23:18.269Z,3.00
2018-05-25T12:25:45.770Z,2.93
2018-05-25T12:28:13.274Z,2.80
2018-05-25T12:30:40.804Z,2.50
2018-05-25T12:33:08.277Z,2.53
2018-05-25T12:35:35.761Z,2.20
2018-05-25T12:38:03.317Z,2.50
2018-05-25T12:40:30.777Z,2.67
2018-05-25T12:42:58.265Z,2.50
2018-05-25T12:45:26.525Z,2.50
2018-05-25T12:47:54.015Z,2.40
2018-05-25T12:50:22.245Z,2.70
2018-05-25T12:52:49.745Z,2.43
2018-05-25T12:55:17.996Z,2.80
2018-05-25T12:57:45.485Z,2.80
2018-05-25T13:00:12.966Z,2.77
2018-05-25T13:02:40.428Z,2.97
2018-05-25T13:05:07.966Z,3.00
2018-05-25T13:07:36.226Z,3.00
2018-05-25T13:10:04.490Z,2.50
2018-05-25T13:12:31.986Z,3.27
2018-05-25T13:14:59.470Z,3.20
2018-05-25T13:17:26.978Z,3.53
2018-05-25T13:19:55.228Z,4.40
2018-05-25T13:22:22.757Z,3.40
2018-05-25T13:24:50.214Z,2.57
2018-05-25T13:27:17.913Z,2.90
2018-05-25T13:29:45.421Z,2.80
2018-05-25T13:32:12.909Z,3.20
2018-05-25T13:34:40.396Z,3.43
2018-05-25T13:37:07.890Z,3.60
2018-05-25T13:39:35.364Z,3.17
2018-05-25T13:42:02.914Z,3.10
2018-05-25T13:44:30.381Z,3.00
2018-05-25T13:46:57.881Z,2.70
2018-05-25T13:49:25.425Z,3.20
2018-05-25T13:51:52.881Z,2.73
2018-05-25T13:54:20.586Z,3.03
2018-05-25T13:56:48.852Z,3.30
2018-05-25T13:59:17.105Z,2.13
2018-05-25T14:01:44.637Z,2.83
2018-05-25T14:04:12.114Z,2.40
2018-05-25T14:06:39.627Z,2.40
2018-05-25T14:09:07.873Z,2.27
2018-05-25T14:11:36.846Z,2.77
2018-05-25T14:14:04.334Z,2.23
2018-05-25T14:16:32.570Z,2.87
2018-05-25T14:19:00.109Z,2.97
2018-05-25T14:21:27.605Z,3.43
2018-05-25T14:23:55.119Z,2.80
2018-05-25T14:26:22.590Z,2.90
2018-05-25T14:28:50.113Z,2.90
2018-05-25T14:31:18.376Z,2.73
2018-05-25T14:33:47.405Z,2.20
2018-05-25T14:36:15.652Z,2.30
2018-05-25T14:38:43.925Z,2.20
2018-05-25T14:41:11.398Z,2.40
2018-05-25T14:43:39.661Z,2.50
2018-05-25T14:46:07.138Z,2.37
2018-05-25T14:48:35.412Z,3.10
2018-05-25T14:51:03.689Z,3.00
2018-05-25T14:53:31.936Z,2.77
2018-05-25T14:55:59.456Z,2.70
2018-05-25T14:58:26.936Z,2.50
2018-05-25T15:00:54.417Z,2.33
2018-05-25T15:03:21.905Z,2.50
2018-05-25T15:05:50.169Z,2.23
2018-05-25T15:08:18.409Z,2.23
2018-05-25T15:10:45.915Z,2.10
2018-05-25T15:13:14.177Z,2.37
2018-05-25T15:15:41.664Z,1.97
2018-05-25T15:18:09.166Z,2.23
2018-05-25T15:20:36.694Z,2.30
2018-05-25T15:23:04.196Z,2.60
2018-05-25T15:25:31.689Z,2.47
2018-05-25T15:27:59.923Z,3.00
2018-05-25T15:30:27.455Z,2.60
2018-05-25T15:32:54.917Z,2.47
2018-05-25T15:35:22.421Z,2.40
2018-05-25T15:37:49.927Z,2.80
2018-05-25T15:40:17.393Z,2.40
2018-05-25T15:42:44.886Z,2.40
2018-05-25T15:45:12.362Z,2.70
2018-05-25T15:47:40.661Z,2.77
2018-05-25T15:50:08.901Z,2.30
2018-05-25T15:52:36.394Z,1.80
2018-05-25T15:55:04.633Z,2.10
2018-05-25T15:57:32.125Z,2.23
2018-05-25T16:00:00.406Z,2.30
2018-05-25T16:02:27.924Z,2.87
2018-05-25T16:04:55.397Z,2.40
2018-05-25T16:07:22.865Z,2.50
2018-05-25T16:09:51.129Z,2.23
2018-05-25T16:12:19.139Z,2.97
2018-05-25T16:14:46.681Z,2.90
2018-05-25T16:17:14.950Z,2.73
2018-05-25T16:19:43.260Z,3.17
2018-05-25T16:22:11.781Z,2.40
2018-05-25T16:24:39.306Z,3.20
2018-05-25T16:27:06.774Z,2.70
2018-05-25T16:29:34.286Z,2.37
2018-05-25T16:32:02.540Z,2.70
2018-05-25T16:34:30.001Z,2.70
2018-05-25T16:36:57.526Z,2.83
2018-05-25T16:39:25.000Z,4.10
2018-05-25T16:41:52.486Z,3.73
2018-05-25T16:44:21.514Z,3.03
2018-05-25T16:46:49.767Z,3.00
2018-05-25T16:49:17.997Z,2.90
2018-05-25T16:51:45.485Z,2.73
2018-05-25T16:54:12.984Z,3.07
2018-05-25T16:56:41.229Z,3.10
2018-05-25T16:59:08.755Z,3.20
2018-05-25T17:01:36.236Z,3.10
2018-05-25T17:04:03.700Z,3.10
2018-05-25T17:06:32.713Z,2.40
2018-05-25T17:09:00.946Z,2.70
2018-05-25T17:11:28.437Z,2.57
2018-05-25T17:13:56.676Z,2.60
2018-05-25T17:16:24.182Z,2.47
2018-05-25T17:18:52.473Z,3.23
2018-05-25T17:21:19.968Z,2.83
2018-05-25T17:23:47.431Z,2.83
2018-05-25T17:26:14.955Z,2.67
2018-05-25T17:28:42.433Z,2.30
2018-05-25T17:31:09.936Z,2.27
2018-05-25T17:33:37.406Z,2.73
2018-05-25T17:36:04.913Z,2.87
2018-05-25T17:38:32.384Z,3.80
2018-05-25T17:40:59.904Z,4.13
2018-05-25T17:43:28.793Z,4.00
2018-05-25T17:45:56.259Z,4.10
2018-05-25T17:48:23.817Z,3.80
2018-05-25T17:50:51.273Z,3.80
2018-05-25T17:53:18.779Z,4.07
2018-05-25T17:55:46.285Z,3.77
2018-05-25T17:58:14.533Z,4.70
2018-05-25T18:00:42.020Z,4.67
2018-05-25T18:03:09.546Z,4.30
2018-05-25T18:05:37.047Z,4.10
2018-05-25T18:08:04.557Z,4.27
2018-05-25T18:10:32.059Z,4.27
2018-05-25T18:12:59.576Z,4.70
2018-05-25T18:15:27.041Z,4.60
2018-05-25T18:17:54.539Z,4.40
2018-05-25T18:20:22.010Z,5.63
2018-05-25T18:22:49.528Z,5.23
2018-05-25T18:25:17.008Z,5.37
2018-05-25T18:27:44.546Z,4.97
2018-05-25T18:30:12.054Z,5.00
2018-05-25T18:32:39.526Z,5.30
2018-05-25T18:35:07.031Z,4.67
2018-05-25T18:37:35.291Z,4.67
2018-05-25T18:40:02.846Z,5.00
2018-05-25T18:42:30.300Z,4.70
2018-05-25T18:44:57.833Z,4.63
2018-05-25T18:47:26.021Z,4.80
2018-05-25T18:49:53.524Z,4.87
2018-05-25T18:52:21.762Z,5.00
2018-05-25T18:54:49.277Z,5.50
2018-05-25T18:57:16.757Z,5.00
2018-05-25T18:59:44.247Z,5.07
2018-05-25T19:02:12.501Z,4.47
2018-05-25T19:04:40.031Z,4.40
2018-05-25T19:07:08.252Z,4.90
2018-05-25T19:09:35.766Z,5.07
2018-05-25T19:12:03.234Z,5.40
2018-05-25T19:14:30.773Z,4.97
2018-05-25T19:16:59.005Z,5.13
2018-05-25T19:19:26.497Z,4.80
2018-05-25T19:21:54.771Z,5.80
2018-05-25T19:24:22.995Z,4.57
2018-05-25T19:26:50.548Z,4.80
2018-05-25T19:29:18.001Z,5.03
2018-05-25T19:31:45.481Z,6.13
2018-05-25T19:34:12.961Z,5.57
2018-05-25T19:36:41.954Z,5.30
2018-05-25T19:39:09.434Z,4.43
2018-05-25T19:41:37.705Z,4.93
2018-05-25T19:44:05.251Z,5.20
2018-05-25T19:46:32.721Z,5.97
2018-05-25T19:49:00.951Z,4.90
2018-05-25T19:51:28.484Z,4.50
2018-05-25T19:53:55.950Z,4.90
2018-05-25T19:56:23.463Z,4.90
2018-05-25T19:58:51.706Z,4.67
2018-05-25T20:01:19.224Z,5.30
2018-05-25T20:03:47.496Z,5.40
2018-05-25T20:06:15.770Z,4.60
2018-05-25T20:08:44.005Z,6.07
2018-05-25T20:11:11.517Z,4.40
2018-05-25T20:13:39.735Z,5.37
2018-05-25T20:16:07.242Z,5.17
2018-05-25T20:18:35.516Z,4.73
2018-05-25T20:21:03.786Z,5.00
2018-05-25T20:23:31.277Z,5.23
2018-05-25T20:25:58.757Z,4.83
2018-05-25T20:28:26.255Z,4.50
2018-05-25T20:30:53.758Z,5.20
2018-05-25T20:33:21.269Z,4.60
2018-05-25T20:35:50.233Z,4.83
2018-05-25T20:38:17.745Z,4.90
2018-05-25T20:40:46.006Z,4.90
2018-05-25T20:43:14.269Z,4.70
2018-05-25T20:45:41.737Z,4.60
2018-05-25T20:48:10.041Z,5.03
2018-05-25T20:50:38.271Z,4.97
2018-05-25T20:53:05.769Z,4.60
2018-05-25T20:55:34.061Z,4.43
2018-05-25T20:58:02.310Z,4.73
2018-05-25T21:00:29.807Z,5.37
2018-05-25T21:02:57.271Z,4.87
2018-05-25T21:05:24.777Z,5.63
2018-05-25T21:07:53.752Z,5.00
2018-05-25T21:10:21.254Z,4.70
2018-05-25T21:12:49.484Z,4.90
2018-05-25T21:15:16.995Z,5.10
2018-05-25T21:17:45.290Z,4.87
2018-05-25T21:20:12.741Z,4.70
2018-05-25T21:22:40.225Z,5.37
2018-05-25T21:25:07.719Z,4.80
2018-05-25T21:27:35.997Z,5.87
2018-05-25T21:30:03.602Z,4.83
2018-05-25T21:32:32.280Z,5.03
2018-05-25T21:34:59.798Z,5.83
2018-05-25T21:37:28.822Z,6.00
2018-05-25T21:39:57.058Z,5.80
2018-05-25T21:42:24.589Z,5.10
2018-05-25T21:44:52.100Z,5.63
2018-05-25T21:47:20.346Z,5.33
2018-05-25T21:49:47.863Z,5.40
2018-05-25T21:52:15.377Z,5.27
2018-05-25T21:54:42.906Z,5.20
2018-05-25T21:57:10.415Z,5.80
2018-05-25T21:59:37.908Z,5.87
2018-05-25T22:02:05.475Z,6.07
2018-05-25T22:04:32.986Z,6.43
2018-05-25T22:07:00.454Z,6.10
2018-05-25T22:09:28.719Z,6.17
2018-05-25T22:11:57.737Z,7.40
2018-05-25T22:14:25.965Z,11.13
2018-05-25T22:16:53.486Z,11.67
2018-05-25T22:19:20.958Z,10.57
2018-05-25T22:21:48.511Z,11.50
2018-05-25T22:24:16.002Z,11.53
2018-05-25T22:26:43.520Z,15.60
2018-05-25T22:29:11.023Z,18.97
2018-05-25T22:31:38.515Z,20.30
2018-05-25T22:34:06.791Z,20.00
2018-05-25T22:36:35.062Z,20.10
2018-05-25T22:39:02.537Z,17.47
2018-05-25T22:41:30.802Z,17.77
2018-05-25T22:44:11.085Z,16.40
2018-05-25T22:46:50.627Z,18.77
2018-05-25T22:49:29.971Z,17.13
2018-05-25T22:52:09.476Z,18.63
2018-05-25T22:54:46.026Z,18.47
2018-05-25T22:57:14.368Z,18.70
2018-05-25T22:59:41.888Z,20.20
2018-05-25T23:02:10.177Z,19.90
2018-05-25T23:04:38.476Z,18.00
2018-05-25T23:07:05.973Z,17.07
2018-05-25T23:09:33.486Z,17.40
2018-05-25T23:12:01.065Z,15.10
2018-05-25T23:14:28.581Z,16.40
2018-05-25T23:16:56.063Z,15.43
2018-05-25T23:19:23.569Z,15.17
2018-05-25T23:21:51.682Z,14.23
2018-05-25T23:24:19.949Z,13.70
2018-05-25T23:26:48.193Z,11.53
2018-05-25T23:29:15.719Z,14.43
2018-05-25T23:31:43.196Z,11.30
2018-05-25T23:34:10.713Z,11.23
2018-05-25T23:36:38.991Z,12.17
2018-05-25T23:39:07.277Z,9.17
2018-05-25T23:41:35.673Z,9.10
2018-05-25T23:44:03.185Z,8.63
2018-05-25T23:46:30.727Z,7.13
2018-05-25T23:48:58.198Z,7.47
2018-05-25T23:51:25.710Z,7.30
2018-05-25T23:53:53.218Z,7.20
2018-05-25T23:56:20.737Z,7.13
2018-05-25T23:58:48.206Z,7.63
